Mazy — 9HB2808 — position and weather

sailwx.info

Track history (hours):
 
Tides and Currents Weather Stations Pressure Air Temp Water Temp Dewpoint Dewpoint Depression Visibility Wind Speed Wind Dir Waves Ship Positions

Mazy

Last reported at 2016-Jul-26 05:33 UTC. Time now 2016-Jul-27 07:47 UTC.
Position N 37°20' E 023°24'.

Length 39 m; draft 2.3 m.

Type: Pleasure craft. MMSI: 229043000.

Date/timePositionNaut miles runAvg speedWind from/ knotsBaromVisibWave heightAir tempDewpointWater temp
2016-Jul-26 05:33N 37°20' E 023°24'3 3.1
2016-Jul-26 04:31N 37°21' E 023°28'0 0.0
2016-Jul-26 03:31N 37°21' E 023°28'0 0.0
2016-Jul-26 02:31N 37°21' E 023°28'0 0.0
2016-Jul-26 01:31N 37°21' E 023°28'0 0.0
2016-Jul-26 00:31N 37°21' E 023°28'0 0.0
2016-Jul-25 23:25N 37°21' E 023°28'0 0.0
2016-Jul-25 22:31N 37°21' E 023°28'0 0.0
2016-Jul-25 21:25N 37°21' E 023°28'0 0.0
2016-Jul-25 20:31N 37°21' E 023°28'0 0.0
2016-Jul-25 19:31N 37°21' E 023°28'0 0.0
2016-Jul-25 18:28N 37°21' E 023°28'0 0.0
2016-Jul-25 17:31N 37°21' E 023°28'0 0.0
2016-Jul-25 16:25N 37°21' E 023°28'0 0.0
2016-Jul-25 15:31N 37°21' E 023°28'6 4.7
2016-Jul-25 14:18N 37°21' E 023°21'0 0.0
2016-Jul-25 13:27N 37°21' E 023°21'0 0.0
2016-Jul-25 12:33N 37°21' E 023°21'0 0.0
2016-Jul-25 11:33N 37°21' E 023°21'0 0.0
2016-Jul-25 10:30N 37°21' E 023°21'0 0.0
2016-Jul-25 09:21N 37°21' E 023°21'0 0.0
2016-Jul-25 08:27N 37°21' E 023°21'0 0.0
2016-Jul-25 06:21N 37°21' E 023°21'0 0.0
2016-Jul-25 05:21N 37°21' E 023°21'0 0.0
2016-Jul-25 04:33N 37°21' E 023°21'0 0.0
2016-Jul-25 03:33N 37°21' E 023°21'0 0.0
2016-Jul-25 02:30N 37°21' E 023°21'0 0.0
2016-Jul-25 01:27N 37°21' E 023°21'0 0.0
2016-Jul-25 00:33N 37°21' E 023°21'0 0.0
2016-Jul-24 23:30N 37°21' E 023°21'0 0.0
2016-Jul-24 21:30N 37°21' E 023°21'0 0.0
2016-Jul-24 20:18N 37°21' E 023°21'0 0.0
2016-Jul-24 19:30N 37°21' E 023°21'0 0.0
2016-Jul-24 18:18N 37°21' E 023°21'0 0.0
2016-Jul-24 17:33N 37°21' E 023°21'0 0.0
2016-Jul-24 16:33N 37°21' E 023°21'0 0.0
2016-Jul-24 15:30N 37°21' E 023°21'0 0.0
2016-Jul-24 14:30N 37°21' E 023°21'0 0.0
2016-Jul-24 13:33N 37°21' E 023°21'0 0.0
2016-Jul-24 12:27N 37°21' E 023°21'0 0.0
2016-Jul-24 11:33N 37°21' E 023°21'0 0.0
2016-Jul-24 10:33N 37°21' E 023°21'0 0.0
2016-Jul-24 09:33N 37°21' E 023°21'0 0.0
2016-Jul-24 08:33N 37°21' E 023°21'0 0.0
2016-Jul-24 07:33N 37°21' E 023°21'0 0.0
2016-Jul-24 06:32N 37°21' E 023°21'0 0.0
2016-Jul-24 05:33N 37°21' E 023°21'0 0.0
2016-Jul-24 04:33N 37°21' E 023°21'0 0.0
2016-Jul-24 03:33N 37°21' E 023°21'0 0.3
2016-Jul-24 02:33N 37°21' E 023°21'7 6.8
2016-Jul-24 01:30N 37°16' E 023°27'1010.9
2016-Jul-24 00:33N 37°15' E 023°40'69 3.4
2016-Jul-23 04:30N 37°09' E 025°07'6 0.4
2016-Jul-22 12:32N 37°09' E 025°14'0 0.0
2016-Jul-22 11:33N 37°09' E 025°14'0 0.0
2016-Jul-22 10:33N 37°09' E 025°14'2 1.5
2016-Jul-22 09:33N 37°09' E 025°16'  
Track history (hours):
 
Tides and Currents Weather Stations Pressure Air Temp Water Temp Dewpoint Dewpoint Depression Visibility Wind Speed Wind Dir Waves Ship Positions

Mazy

Last reported at 2016-Jul-26 05:33 UTC. Time now 2016-Jul-27 07:47 UTC.
Position N 37°20' E 023°24'.

Length 39 m; draft 2.3 m.

Type: Pleasure craft. MMSI: 229043000.

Date/timePositionNaut miles runAvg speedWind from/ knotsBaromVisibWave heightAir tempDewpointWater temp
2016-Jul-26 05:33N 37°20' E 023°24'3 3.1
2016-Jul-26 04:31N 37°21' E 023°28'0 0.0
2016-Jul-26 03:31N 37°21' E 023°28'0 0.0
2016-Jul-26 02:31N 37°21' E 023°28'0 0.0
2016-Jul-26 01:31N 37°21' E 023°28'0 0.0
2016-Jul-26 00:31N 37°21' E 023°28'0 0.0
2016-Jul-25 23:25N 37°21' E 023°28'0 0.0
2016-Jul-25 22:31N 37°21' E 023°28'0 0.0
2016-Jul-25 21:25N 37°21' E 023°28'0 0.0
2016-Jul-25 20:31N 37°21' E 023°28'0 0.0
2016-Jul-25 19:31N 37°21' E 023°28'0 0.0
2016-Jul-25 18:28N 37°21' E 023°28'0 0.0
2016-Jul-25 17:31N 37°21' E 023°28'0 0.0
2016-Jul-25 16:25N 37°21' E 023°28'0 0.0
2016-Jul-25 15:31N 37°21' E 023°28'6 4.7
2016-Jul-25 14:18N 37°21' E 023°21'0 0.0
2016-Jul-25 13:27N 37°21' E 023°21'0 0.0
2016-Jul-25 12:33N 37°21' E 023°21'0 0.0
2016-Jul-25 11:33N 37°21' E 023°21'0 0.0
2016-Jul-25 10:30N 37°21' E 023°21'0 0.0
2016-Jul-25 09:21N 37°21' E 023°21'0 0.0
2016-Jul-25 08:27N 37°21' E 023°21'0 0.0
2016-Jul-25 06:21N 37°21' E 023°21'0 0.0
2016-Jul-25 05:21N 37°21' E 023°21'0 0.0
2016-Jul-25 04:33N 37°21' E 023°21'0 0.0
2016-Jul-25 03:33N 37°21' E 023°21'0 0.0
2016-Jul-25 02:30N 37°21' E 023°21'0 0.0
2016-Jul-25 01:27N 37°21' E 023°21'0 0.0
2016-Jul-25 00:33N 37°21' E 023°21'0 0.0
2016-Jul-24 23:30N 37°21' E 023°21'0 0.0
2016-Jul-24 21:30N 37°21' E 023°21'0 0.0
2016-Jul-24 20:18N 37°21' E 023°21'0 0.0
2016-Jul-24 19:30N 37°21' E 023°21'0 0.0
2016-Jul-24 18:18N 37°21' E 023°21'0 0.0
2016-Jul-24 17:33N 37°21' E 023°21'0 0.0
2016-Jul-24 16:33N 37°21' E 023°21'0 0.0
2016-Jul-24 15:30N 37°21' E 023°21'0 0.0
2016-Jul-24 14:30N 37°21' E 023°21'0 0.0
2016-Jul-24 13:33N 37°21' E 023°21'0 0.0
2016-Jul-24 12:27N 37°21' E 023°21'0 0.0
2016-Jul-24 11:33N 37°21' E 023°21'0 0.0
2016-Jul-24 10:33N 37°21' E 023°21'0 0.0
2016-Jul-24 09:33N 37°21' E 023°21'0 0.0
2016-Jul-24 08:33N 37°21' E 023°21'0 0.0
2016-Jul-24 07:33N 37°21' E 023°21'0 0.0
2016-Jul-24 06:32N 37°21' E 023°21'0 0.0
2016-Jul-24 05:33N 37°21' E 023°21'0 0.0
2016-Jul-24 04:33N 37°21' E 023°21'0 0.0
2016-Jul-24 03:33N 37°21' E 023°21'0 0.3
2016-Jul-24 02:33N 37°21' E 023°21'7 6.8
2016-Jul-24 01:30N 37°16' E 023°27'1010.9
2016-Jul-24 00:33N 37°15' E 023°40'69 3.4
2016-Jul-23 04:30N 37°09' E 025°07'6 0.4
2016-Jul-22 12:32N 37°09' E 025°14'0 0.0
2016-Jul-22 11:33N 37°09' E 025°14'0 0.0
2016-Jul-22 10:33N 37°09' E 025°14'2 1.5
2016-Jul-22 09:33N 37°09' E 025°16'  

Dump ship's entire track history